createdAt,value
2018-07-02T00:01:50.097Z,99.90
2018-07-02T00:04:19.611Z,99.90
2018-07-02T00:07:00.330Z,99.90
2018-07-02T00:09:29.899Z,99.90
2018-07-02T00:11:59.483Z,99.90
2018-07-02T00:14:29.061Z,99.90
2018-07-02T00:16:58.671Z,99.90
2018-07-02T00:19:31.673Z,99.90
2018-07-02T00:22:01.289Z,99.90
2018-07-02T00:24:30.985Z,99.90
2018-07-02T00:27:00.499Z,99.90
2018-07-02T00:29:29.873Z,99.90
2018-07-02T00:31:59.302Z,99.90
2018-07-02T00:34:29.271Z,99.90
2018-07-02T00:36:58.721Z,99.90
2018-07-02T00:39:28.355Z,99.90
2018-07-02T00:41:57.825Z,99.90
2018-07-02T00:44:27.292Z,99.90
2018-07-02T00:46:56.925Z,99.90
2018-07-02T00:53:06.784Z,99.90
2018-07-02T00:55:36.256Z,99.90
2018-07-02T00:58:05.907Z,99.90
2018-07-02T01:00:36.698Z,99.90
2018-07-02T01:03:06.225Z,99.90
2018-07-02T01:05:35.794Z,99.90
2018-07-02T01:08:05.333Z,99.90
2018-07-02T01:10:34.979Z,99.90
2018-07-02T01:13:04.602Z,99.90
2018-07-02T01:15:34.220Z,99.90
2018-07-02T01:18:03.615Z,99.90
2018-07-02T01:20:33.222Z,99.90
2018-07-02T01:23:02.645Z,99.90
2018-07-02T01:25:32.109Z,99.90
2018-07-02T01:28:01.565Z,99.90
2018-07-02T01:30:31.122Z,99.90
2018-07-02T01:33:01.086Z,99.90
2018-07-02T01:35:30.897Z,99.90
2018-07-02T01:38:00.340Z,99.90
2018-07-02T01:40:29.948Z,99.90
2018-07-02T01:42:59.421Z,99.90
2018-07-02T01:47:57.973Z,99.90
2018-07-02T01:50:27.779Z,99.90
2018-07-02T01:52:57.249Z,99.90
2018-07-02T01:55:26.930Z,99.90
2018-07-02T01:57:56.537Z,99.90
2018-07-02T02:02:55.165Z,99.90
2018-07-02T02:05:24.734Z,99.90
2018-07-02T02:07:54.291Z,99.90
2018-07-02T02:10:23.675Z,99.90
2018-07-02T02:12:53.197Z,99.90
2018-07-02T02:15:22.808Z,99.90
2018-07-02T02:17:53.551Z,99.90
2018-07-02T02:25:21.223Z,99.90
2018-07-02T02:27:50.740Z,99.90
2018-07-02T02:30:20.373Z,99.90
2018-07-02T02:32:49.853Z,99.90
2018-07-02T02:35:19.360Z,99.90
2018-07-02T02:37:49.816Z,99.90
2018-07-02T02:40:19.309Z,99.90
2018-07-02T02:42:49.577Z,99.90
2018-07-02T02:45:19.629Z,99.90
2018-07-02T02:47:49.998Z,99.90
2018-07-02T02:50:19.471Z,99.90
2018-07-02T02:52:49.640Z,99.90
2018-07-02T02:55:19.450Z,99.90
2018-07-02T02:57:49.610Z,99.90
2018-07-02T03:00:19.149Z,99.90
2018-07-02T03:02:49.797Z,99.90
2018-07-02T03:05:19.289Z,99.90
2018-07-02T03:07:49.688Z,99.90
2018-07-02T03:10:19.165Z,99.90
2018-07-02T03:12:49.685Z,99.90
2018-07-02T03:15:19.172Z,99.90
2018-07-02T03:17:49.894Z,99.90
2018-07-02T03:20:19.490Z,99.90
2018-07-02T03:22:49.598Z,99.90
2018-07-02T03:25:19.188Z,99.90
2018-07-02T03:27:49.848Z,99.90
2018-07-02T03:30:19.292Z,99.90
2018-07-02T03:32:49.648Z,99.90
2018-07-02T03:35:19.135Z,99.90
2018-07-02T03:37:49.680Z,99.90
2018-07-02T03:40:19.188Z,99.90
2018-07-02T03:42:49.553Z,99.90
2018-07-02T03:45:18.969Z,99.90
2018-07-02T03:47:48.458Z,99.90
2018-07-02T03:54:07.515Z,99.90
2018-07-02T03:56:41.587Z,99.90
2018-07-02T03:59:11.053Z,99.90
2018-07-02T04:01:40.534Z,99.90
2018-07-02T04:04:10.116Z,99.90
2018-07-02T04:06:39.679Z,99.90
2018-07-02T04:09:11.236Z,99.90
2018-07-02T04:11:41.590Z,99.90
2018-07-02T04:14:11.081Z,99.90
2018-07-02T04:16:40.584Z,99.90
2018-07-02T04:19:11.208Z,99.90
2018-07-02T04:21:43.612Z,99.90
2018-07-02T04:24:13.167Z,99.90
2018-07-02T04:26:42.661Z,99.90
2018-07-02T04:29:12.155Z,99.90
2018-07-02T04:31:41.578Z,99.90
2018-07-02T04:34:11.059Z,99.90
2018-07-02T04:36:40.454Z,99.90
2018-07-02T04:41:39.034Z,99.90
2018-07-02T04:44:08.802Z,99.90
2018-07-02T04:49:07.163Z,99.90
2018-07-02T04:54:05.566Z,99.90
2018-07-02T04:56:35.062Z,99.90
2018-07-02T04:59:05.918Z,99.90
2018-07-02T05:01:35.431Z,99.90
2018-07-02T05:04:04.946Z,99.90
2018-07-02T05:10:11.715Z,99.90
2018-07-02T05:12:41.168Z,99.90
2018-07-02T05:15:10.647Z,99.90
2018-07-02T05:17:40.008Z,99.90
2018-07-02T05:20:09.531Z,99.90
2018-07-02T05:22:39.056Z,99.90
2018-07-02T05:25:08.592Z,99.90
2018-07-02T05:27:38.020Z,99.90
2018-07-02T05:30:07.531Z,99.90
2018-07-02T05:32:39.378Z,99.90
2018-07-02T05:37:37.723Z,99.90
2018-07-02T05:40:07.182Z,99.90
2018-07-02T05:42:36.598Z,99.90
2018-07-02T05:45:06.313Z,99.90
2018-07-02T05:47:35.974Z,99.90
2018-07-02T05:50:05.351Z,99.90
2018-07-02T05:52:34.839Z,99.90
2018-07-02T05:55:04.323Z,99.90
2018-07-02T05:57:33.834Z,99.90
2018-07-02T06:00:03.425Z,99.90
2018-07-02T06:02:32.786Z,99.90
2018-07-02T06:05:02.390Z,99.90
2018-07-02T06:07:31.956Z,99.90
2018-07-02T06:10:01.509Z,99.90
2018-07-02T06:12:31.006Z,99.90
2018-07-02T06:15:00.584Z,99.90
2018-07-02T06:17:30.117Z,99.90
2018-07-02T06:19:59.619Z,99.90
2018-07-02T06:22:29.171Z,99.90
2018-07-02T06:24:58.891Z,99.90
2018-07-02T06:27:28.438Z,99.90
2018-07-02T06:29:57.776Z,99.90
2018-07-02T06:32:27.320Z,99.90
2018-07-02T06:34:57.564Z,99.90
2018-07-02T06:37:27.033Z,99.90
2018-07-02T06:39:56.604Z,99.90
2018-07-02T06:42:26.015Z,99.90
2018-07-02T06:44:55.489Z,99.90
2018-07-02T06:47:24.899Z,99.90
2018-07-02T06:49:54.399Z,99.90
2018-07-02T06:52:23.794Z,99.90
2018-07-02T06:54:53.331Z,99.90
2018-07-02T06:57:22.817Z,99.90
2018-07-02T06:59:52.327Z,99.90
2018-07-02T07:06:06.100Z,99.90
2018-07-02T07:08:35.727Z,99.90
2018-07-02T07:11:05.310Z,99.90
2018-07-02T07:13:34.782Z,99.90
2018-07-02T07:16:04.675Z,99.90
2018-07-02T07:18:34.138Z,99.90
2018-07-02T07:21:03.531Z,98.00
2018-07-02T07:23:32.891Z,95.00
2018-07-02T07:26:02.447Z,95.60
2018-07-02T07:28:31.872Z,90.90
2018-07-02T07:31:01.496Z,90.00
2018-07-02T07:33:30.890Z,85.10
2018-07-02T07:36:00.447Z,80.40
2018-07-02T07:38:30.371Z,73.70
2018-07-02T07:51:14.027Z,73.50
2018-07-02T07:53:43.417Z,69.20
2018-07-02T07:56:13.903Z,53.90
2018-07-02T07:58:43.431Z,52.10
2018-07-02T08:01:12.967Z,52.40
2018-07-02T08:03:42.522Z,52.40
2018-07-02T08:06:11.960Z,51.00
2018-07-02T08:08:41.595Z,51.20
2018-07-02T08:11:11.011Z,51.30
2018-07-02T08:13:40.405Z,51.50
2018-07-02T08:16:09.895Z,49.90
2018-07-02T08:18:39.723Z,50.60
2018-07-02T08:21:09.184Z,52.20
2018-07-02T08:23:38.691Z,52.20
2018-07-02T08:26:08.142Z,51.10
2018-07-02T08:28:37.539Z,50.80
2018-07-02T08:31:07.212Z,50.20
2018-07-02T08:33:36.754Z,48.90
2018-07-02T08:38:35.156Z,49.70
2018-07-02T08:41:04.740Z,48.80
2018-07-02T08:43:34.118Z,47.70
2018-07-02T08:50:07.784Z,46.60
2018-07-02T08:52:37.366Z,48.70
2018-07-02T08:55:07.013Z,46.60
2018-07-02T08:57:36.418Z,46.80
2018-07-02T09:00:06.093Z,46.90
2018-07-02T09:02:35.746Z,45.20
2018-07-02T09:05:05.280Z,45.90
2018-07-02T09:07:34.848Z,44.40
2018-07-02T09:10:04.899Z,44.30
2018-07-02T09:12:35.054Z,43.10
2018-07-02T09:15:04.796Z,44.60
2018-07-02T09:21:08.885Z,43.60
2018-07-02T09:23:38.315Z,44.20
2018-07-02T09:26:07.769Z,43.90
2018-07-02T09:28:37.160Z,43.30
2018-07-02T09:31:06.866Z,42.30
2018-07-02T09:33:36.233Z,44.40
2018-07-02T09:36:05.758Z,43.10
2018-07-02T09:38:35.219Z,42.20
2018-07-02T09:41:04.671Z,41.10
2018-07-02T09:43:34.211Z,42.20
2018-07-02T09:46:03.770Z,43.90
2018-07-02T09:48:33.358Z,42.90
2018-07-02T09:51:02.717Z,43.00
2018-07-02T09:53:32.147Z,42.90
2018-07-02T09:56:01.628Z,44.00
2018-07-02T10:01:00.148Z,42.30
2018-07-02T10:06:01.339Z,43.20
2018-07-02T10:08:30.848Z,40.40
2018-07-02T10:11:00.359Z,42.40
2018-07-02T10:13:30.545Z,45.50
2018-07-02T10:16:00.177Z,42.50
2018-07-02T10:18:29.693Z,41.50
2018-07-02T10:20:59.161Z,40.60
2018-07-02T10:23:28.722Z,40.50
2018-07-02T10:25:58.169Z,40.70
2018-07-02T10:30:56.608Z,40.90
2018-07-02T10:33:26.060Z,41.10
2018-07-02T10:35:55.571Z,43.20
2018-07-02T10:38:25.000Z,42.50
2018-07-02T10:45:16.346Z,41.00
2018-07-02T10:47:48.635Z,41.40
2018-07-02T10:50:18.120Z,37.90
2018-07-02T10:52:47.493Z,36.20
2018-07-02T10:55:16.908Z,39.10
2018-07-02T10:57:46.439Z,39.00
2018-07-02T11:00:16.307Z,38.90
2018-07-02T11:02:45.807Z,39.70
2018-07-02T11:05:15.376Z,38.70
2018-07-02T11:07:46.186Z,38.90
2018-07-02T11:10:15.739Z,38.40
2018-07-02T11:12:45.289Z,37.30
2018-07-02T11:15:14.676Z,38.00
2018-07-02T11:17:44.929Z,38.10
2018-07-02T11:20:14.351Z,37.00
2018-07-02T11:22:43.915Z,36.30
2018-07-02T11:27:42.672Z,36.90
2018-07-02T11:30:12.218Z,37.10
2018-07-02T11:32:41.783Z,38.10
2018-07-02T11:35:11.259Z,35.50
2018-07-02T11:37:40.786Z,33.30
2018-07-02T11:40:10.133Z,35.40
2018-07-02T11:42:39.714Z,36.10
2018-07-02T11:45:09.088Z,35.60
2018-07-02T11:47:38.423Z,37.50
2018-07-02T11:50:07.864Z,37.00
2018-07-02T11:59:11.693Z,39.50
2018-07-02T12:01:41.075Z,37.60
2018-07-02T12:04:10.498Z,35.00
2018-07-02T12:06:40.005Z,34.70
2018-07-02T12:09:11.178Z,34.70
2018-07-02T12:11:40.938Z,36.00
2018-07-02T12:14:10.375Z,35.90
2018-07-02T12:16:39.748Z,37.20
2018-07-02T12:19:09.158Z,35.40
2018-07-02T12:21:41.789Z,36.70
2018-07-02T12:24:11.180Z,34.30
2018-07-02T12:26:40.551Z,34.40
2018-07-02T12:29:09.851Z,34.40
2018-07-02T12:31:39.291Z,33.00
2018-07-02T12:34:08.775Z,31.40
2018-07-02T12:36:38.287Z,30.10
2018-07-02T12:39:10.607Z,29.50
2018-07-02T12:41:41.133Z,29.60
2018-07-02T12:44:11.946Z,30.20
2018-07-02T12:46:41.866Z,30.40
2018-07-02T12:49:12.711Z,32.80
2018-07-02T12:51:42.157Z,30.60
2018-07-02T12:54:11.653Z,30.00
2018-07-02T12:56:41.064Z,31.80
2018-07-02T12:59:10.527Z,31.50
2018-07-02T13:01:40.039Z,29.20
2018-07-02T13:06:39.382Z,29.20
2018-07-02T13:09:10.227Z,28.20
2018-07-02T13:11:40.058Z,27.90
2018-07-02T13:14:10.543Z,29.00
2018-07-02T13:16:40.206Z,30.10
2018-07-02T13:19:09.673Z,29.50
2018-07-02T13:21:39.143Z,29.60
2018-07-02T13:24:08.579Z,32.00
2018-07-02T13:26:37.912Z,30.50
2018-07-02T13:29:07.374Z,27.60
2018-07-02T13:31:38.239Z,29.70
2018-07-02T13:34:07.805Z,28.70
2018-07-02T13:36:37.316Z,30.00
2018-07-02T13:41:36.131Z,30.50
2018-07-02T13:44:05.879Z,29.70
2018-07-02T13:46:35.363Z,30.60
2018-07-02T13:49:04.838Z,30.40
2018-07-02T13:51:34.309Z,30.50
2018-07-02T13:54:03.689Z,28.80
2018-07-02T13:56:33.132Z,31.20
2018-07-02T13:59:03.849Z,30.00
2018-07-02T14:01:33.179Z,29.30
2018-07-02T14:04:02.762Z,29.80
2018-07-02T14:06:32.150Z,30.40
2018-07-02T14:09:01.693Z,30.20
2018-07-02T14:11:31.231Z,29.90
2018-07-02T14:14:00.798Z,29.50
2018-07-02T14:16:30.168Z,29.90
2018-07-02T14:18:59.540Z,30.00
2018-07-02T14:21:29.087Z,30.80
2018-07-02T14:23:58.618Z,30.00
2018-07-02T14:26:28.947Z,31.10
2018-07-02T14:28:58.310Z,30.00
2018-07-02T14:31:27.682Z,29.60
2018-07-02T14:33:57.078Z,29.50
2018-07-02T14:36:26.432Z,30.80
2018-07-02T14:38:55.963Z,29.80
2018-07-02T14:41:25.327Z,28.50
2018-07-02T14:43:54.968Z,27.50
2018-07-02T14:46:24.478Z,28.20
2018-07-02T14:48:54.319Z,27.50
2018-07-02T14:51:23.752Z,26.70
2018-07-02T14:53:53.187Z,27.10
2018-07-02T14:56:22.658Z,27.40
2018-07-02T14:58:52.250Z,27.20
2018-07-02T15:01:21.769Z,29.80
2018-07-02T15:03:51.358Z,29.80
2018-07-02T15:08:49.747Z,29.10
2018-07-02T15:11:19.306Z,29.80
2018-07-02T15:13:48.814Z,30.20
2018-07-02T15:16:18.682Z,27.90
2018-07-02T15:18:48.017Z,29.40
2018-07-02T15:21:17.519Z,28.20
2018-07-02T15:23:46.903Z,28.30
2018-07-02T15:26:16.329Z,27.60
2018-07-02T15:28:45.692Z,28.90
2018-07-02T15:31:15.322Z,28.30
2018-07-02T15:33:44.764Z,27.70
2018-07-02T15:36:14.075Z,28.30
2018-07-02T15:38:43.495Z,28.40
2018-07-02T15:41:12.936Z,27.90
2018-07-02T15:43:42.464Z,28.30
2018-07-02T15:46:11.843Z,27.70
2018-07-02T15:48:41.392Z,27.50
2018-07-02T15:51:10.799Z,27.30
2018-07-02T15:53:41.018Z,26.30
2018-07-02T15:56:10.395Z,26.80
2018-07-02T15:58:39.864Z,26.20
2018-07-02T16:01:09.284Z,26.20
2018-07-02T16:03:38.797Z,26.00
2018-07-02T16:06:08.674Z,27.30
2018-07-02T16:08:38.246Z,26.20
2018-07-02T16:11:07.655Z,27.00
2018-07-02T16:13:37.086Z,27.60
2018-07-02T16:18:35.427Z,26.80
2018-07-02T16:21:04.885Z,27.80
2018-07-02T16:23:34.326Z,27.10
2018-07-02T16:26:03.707Z,27.80
2018-07-02T16:28:33.174Z,27.60
2018-07-02T16:31:02.557Z,29.10
2018-07-02T16:33:32.029Z,29.70
2018-07-02T16:36:01.426Z,29.20
2018-07-02T16:38:31.269Z,30.00
2018-07-02T16:41:00.790Z,31.20
2018-07-02T16:43:30.870Z,31.00
2018-07-02T16:46:00.364Z,30.90
2018-07-02T16:48:29.823Z,31.40
2018-07-02T16:50:59.228Z,30.50
2018-07-02T16:53:28.608Z,31.00
2018-07-02T16:55:58.058Z,31.20
2018-07-02T16:58:27.672Z,32.10
2018-07-02T17:00:57.274Z,32.60
2018-07-02T17:03:26.763Z,32.60
2018-07-02T17:05:56.213Z,32.00
2018-07-02T17:08:26.103Z,32.90
2018-07-02T17:15:09.272Z,31.90
2018-07-02T17:17:38.767Z,32.50
2018-07-02T17:20:08.911Z,32.40
2018-07-02T17:22:38.586Z,33.80
2018-07-02T17:25:09.311Z,33.30
2018-07-02T17:27:38.851Z,34.80
2018-07-02T17:30:09.318Z,33.50
2018-07-02T17:32:38.863Z,35.30
2018-07-02T17:35:08.296Z,34.30
2018-07-02T17:37:37.824Z,34.60
2018-07-02T17:40:07.900Z,33.90
2018-07-02T17:42:37.731Z,34.90
2018-07-02T17:45:07.383Z,33.60
2018-07-02T17:47:36.908Z,33.80
2018-07-02T17:50:06.501Z,34.30
2018-07-02T18:05:02.729Z,34.30
2018-07-02T18:07:32.276Z,34.80
2018-07-02T18:10:01.718Z,38.80
2018-07-02T18:15:00.249Z,38.70
2018-07-02T18:17:29.839Z,38.70
2018-07-02T18:19:59.399Z,38.70
2018-07-02T18:22:28.977Z,38.70
2018-07-02T18:24:58.370Z,39.10
2018-07-02T18:27:27.794Z,38.60
2018-07-02T18:29:57.292Z,39.40
2018-07-02T18:32:26.801Z,40.10
2018-07-02T18:34:56.150Z,40.00
2018-07-02T18:37:25.591Z,39.80
2018-07-02T18:39:55.111Z,41.00
2018-07-02T18:42:25.426Z,41.00
2018-07-02T18:44:54.913Z,42.30
2018-07-02T18:47:24.468Z,42.50
2018-07-02T18:49:54.043Z,44.30
2018-07-02T18:52:23.628Z,45.40
2018-07-02T18:54:53.178Z,45.60
2018-07-02T18:57:22.611Z,46.40
2018-07-02T18:59:52.465Z,45.30
2018-07-02T19:02:21.973Z,45.00
2018-07-02T19:04:51.946Z,48.10
2018-07-02T19:07:21.595Z,49.10
2018-07-02T19:09:52.139Z,48.00
2018-07-02T19:12:21.689Z,48.10
2018-07-02T19:14:52.011Z,48.30
2018-07-02T19:17:21.466Z,48.70
2018-07-02T19:19:51.782Z,50.80
2018-07-02T19:22:21.352Z,56.60
2018-07-02T19:24:50.694Z,63.20
2018-07-02T19:27:20.089Z,69.80
2018-07-02T19:29:49.648Z,74.70
2018-07-02T19:32:19.027Z,76.60
2018-07-02T19:34:48.529Z,80.40
2018-07-02T19:37:18.835Z,82.60
2018-07-02T19:39:48.285Z,83.80
2018-07-02T19:42:17.618Z,86.00
2018-07-02T19:44:47.114Z,88.00
2018-07-02T19:47:16.506Z,87.20
2018-07-02T19:49:48.342Z,89.60
2018-07-02T19:52:17.660Z,90.20
2018-07-02T19:54:47.083Z,91.20
2018-07-02T19:57:16.705Z,92.60
2018-07-02T19:59:46.086Z,92.40
2018-07-02T20:06:07.295Z,93.00
2018-07-02T20:08:36.727Z,93.30
2018-07-02T20:11:06.302Z,91.40
2018-07-02T20:13:35.791Z,90.90
2018-07-02T20:16:05.406Z,90.40
2018-07-02T20:18:34.755Z,90.00
2018-07-02T20:21:04.235Z,89.60
2018-07-02T20:23:33.608Z,88.90
2018-07-02T20:26:03.844Z,87.80
2018-07-02T20:31:03.675Z,86.80
2018-07-02T20:33:33.038Z,85.60
2018-07-02T20:36:02.546Z,84.70
2018-07-02T20:38:32.015Z,83.90
2018-07-02T20:41:01.437Z,85.80
2018-07-02T20:43:30.843Z,84.20
2018-07-02T20:46:00.254Z,88.70
2018-07-02T20:48:29.860Z,89.30
2018-07-02T20:50:59.318Z,91.00
2018-07-02T20:53:28.709Z,91.50
2018-07-02T20:55:58.351Z,92.60
2018-07-02T20:58:27.774Z,92.80
2018-07-02T21:00:57.319Z,93.70
2018-07-02T21:03:26.843Z,94.10
2018-07-02T21:05:56.402Z,94.20
2018-07-02T21:08:25.759Z,94.10
2018-07-02T21:10:56.730Z,94.10
2018-07-02T21:13:26.099Z,94.70
2018-07-02T21:15:55.561Z,95.10
2018-07-02T21:18:24.923Z,96.40
2018-07-02T21:20:54.326Z,97.70
2018-07-02T21:23:23.729Z,99.90
2018-07-02T21:25:53.123Z,99.40
2018-07-02T21:28:22.682Z,99.90
2018-07-02T21:30:52.302Z,99.30
2018-07-02T21:33:21.851Z,99.90
2018-07-02T21:38:28.019Z,99.90
2018-07-02T21:40:58.913Z,99.90
2018-07-02T21:43:28.358Z,99.90
2018-07-02T21:45:57.786Z,99.90
2018-07-02T21:48:27.232Z,99.90
2018-07-02T21:50:56.724Z,99.90
2018-07-02T21:53:26.098Z,99.90
2018-07-02T21:55:55.613Z,99.90
2018-07-02T21:58:24.908Z,99.90
2018-07-02T22:00:55.588Z,99.90
2018-07-02T22:03:24.966Z,99.90
2018-07-02T22:05:54.484Z,99.90
2018-07-02T22:12:10.262Z,99.90
2018-07-02T22:17:08.560Z,99.90
2018-07-02T22:19:37.854Z,99.90
2018-07-02T22:22:07.323Z,99.90
2018-07-02T22:27:06.703Z,99.90
2018-07-02T22:29:36.206Z,99.90
2018-07-02T22:32:05.738Z,99.90
2018-07-02T22:34:35.300Z,99.90
2018-07-02T22:39:33.973Z,99.90
2018-07-02T22:42:03.411Z,99.90
2018-07-02T22:44:32.913Z,99.90
2018-07-02T22:47:02.434Z,99.90
2018-07-02T22:49:31.774Z,99.90
2018-07-02T22:52:01.215Z,99.90
2018-07-02T22:54:30.644Z,99.90
2018-07-02T22:59:29.043Z,99.90
2018-07-02T23:01:58.458Z,99.90
2018-07-02T23:04:28.019Z,99.90
2018-07-02T23:06:57.366Z,99.90
2018-07-02T23:09:26.666Z,99.90
2018-07-02T23:11:56.079Z,99.90
2018-07-02T23:14:27.043Z,99.90
2018-07-02T23:16:56.374Z,99.90
2018-07-02T23:19:25.788Z,99.90
2018-07-02T23:21:55.269Z,99.90
2018-07-02T23:24:24.695Z,99.90
2018-07-02T23:26:54.054Z,99.90
2018-07-02T23:29:23.447Z,99.90
2018-07-02T23:31:52.871Z,99.90
2018-07-02T23:34:22.212Z,99.90
2018-07-02T23:36:52.626Z,99.90
2018-07-02T23:39:22.169Z,99.90
2018-07-02T23:41:53.019Z,99.90
2018-07-02T23:44:22.478Z,99.90
2018-07-02T23:46:52.655Z,99.90
2018-07-02T23:49:22.135Z,99.90
2018-07-02T23:51:52.447Z,99.90
2018-07-02T23:54:21.964Z,99.90
2018-07-02T23:56:51.378Z,99.90
